Impacts METAR Board
IDs:

KPDX - Portland Intl Arpt, OR, US

Updated at: 0700 UTC 22 Oct 2021
Potential Impact None Slight Moderate High
Time 21/19Z 21/20Z 21/21Z 21/22Z 21/23Z 22/00Z 22/01Z 22/02Z 22/03Z 22/04Z 22/05Z 22/06Z 22/07Z
Temp63 65 66 67 67 66 62 59 58 58 57 56 56
Dewpt45 45 46 46 45 49 52 55 55 55 52 52 52
Altim29.78 29.78 29.73 29.68 29.66 29.74 29.76 29.80 29.82 29.84 29.83 29.85 29.84
VIS10 10 10 10 10 10 7 4 5 7 10 7 10
CIG80 85 85 80 80 90 45 29 55 13 29 70 80
CoverBKNBKNOVCOVCBKNOVCOVCOVCOVCOVCOVCOVCOVC
FltCatVFRVFRVFRVFRVFRVFRVFRMVFRMVFRMVFRMVFRVFRVFR
WX------------RA+RA BRRA BR-RA-RARA-RA
WDir12012011012012028000110140130140120
WSpd14 14 16 14 16 6 0 0 6 10 8 7 8
WGst21 21 -- -- -- -- -- -- -- -- -- -- --
Raw hourly METARs
KPDX 211853Z 12014G21KT 10SM BKN080 BKN150 17/07 A2978 RMK AO2 SLP084 T01720072
KPDX 211953Z 12014G21KT 10SM BKN085 BKN150 BKN250 18/07 A2978 RMK AO2 SLP083 T01830072
KPDX 212053Z 11016KT 10SM BKN085 OVC140 19/08 A2973 RMK AO2 SLP066 T01890078 58019
KPDX 212153Z 12014KT 10SM BKN080 OVC140 19/08 A2968 RMK AO2 SLP050 T01940078
KPDX 212253Z 12016KT 10SM SCT025 BKN080 BKN120 19/07 A2966 RMK AO2 SLP043 T01940072
KPDX 212353Z 28006KT 10SM SCT030 SCT065 OVC090 19/09 A2974 RMK AO2 RAB06E37 SLP071 P0000 60000 T01890094 10200 20167 53005
KPDX 220053Z 00000KT 7SM RA SCT030 BKN045 OVC070 17/11 A2976 RMK AO2 RAB2359 SLP077 P0001 T01670111
KPDX 220153Z 00000KT 4SM +RA BR SCT015 BKN029 OVC039 15/13 A2980 RMK AO2 SLP091 P0018 T01500128
KPDX 220253Z 11006KT 5SM RA BR FEW007 SCT035 OVC055 14/13 A2982 RMK AO2 SLP095 P0020 60039 T01440128 51024
KPDX 220353Z 14010KT 7SM -RA SCT005 BKN013 OVC024 14/13 A2984 RMK AO2 SLP102 P0011 T01440128
KPDX 220453Z 13008KT 10SM -RA FEW005 BKN029 OVC044 14/11 A2983 RMK AO2 SLP099 P0011 T01390111
KPDX 220553Z 14007KT 7SM RA FEW029 SCT045 OVC070 13/11 A2985 RMK AO2 SLP106 P0006 60067 T01330111 10189 20133 51011
KPDX 220653Z 12008KT 10SM -RA FEW050 OVC080 13/11 A2984 RMK AO2 SLP103 P0011 T01330111



Page loaded:  07:38 UTC  |   12:38 AM Pacific  |   01:38 AM Mountain  |   02:38 AM Central  |   03:38 AM Eastern

 

ADVISORIES

FORECASTS

FORECASTS

OBSERVATIONS

USER TOOLS

ABOUT US